sensor_id;sensor_type;location;lat;lon;timestamp;pressure;altitude;pressure_sealevel;temperature;humidity
14041;BME280;7095;51.388;6.196;2023-03-01T00:01:47;54483.34;;;-145.32;100.00
14041;BME280;7095;51.388;6.196;2023-03-01T00:04:16;54455.50;;;-145.32;100.00
14041;BME280;7095;51.388;6.196;2023-03-01T00:06:44;54453.50;;;-145.32;100.00
14041;BME280;7095;51.388;6.196;2023-03-01T00:09:14;54431.63;;;-145.32;100.00
14041;BME280;7095;51.388;6.196;2023-03-01T00:11:43;54443.56;;;-145.32;100.00
14041;BME280;7095;51.388;6.196;2023-03-01T00:14:13;54457.47;;;-145.32;100.00
14041;BME280;7095;51.388;6.196;2023-03-01T00:16:45;54449.53;;;-145.32;100.00
14041;BME280;7095;51.388;6.196;2023-03-01T00:19:15;54475.38;;;-145.32;100.00
14041;BME280;7095;51.388;6.196;2023-03-01T00:21:44;54473.41;;;-145.32;100.00
14041;BME280;7095;51.388;6.196;2023-03-01T00:24:13;54451.53;;;-145.32;100.00
14041;BME280;7095;51.388;6.196;2023-03-01T00:26:42;54501.22;;;-145.32;100.00
14041;BME280;7095;51.388;6.196;2023-03-01T00:29:10;54501.22;;;-145.32;100.00
14041;BME280;7095;51.388;6.196;2023-03-01T00:31:40;54471.41;;;-145.32;100.00
14041;BME280;7095;51.388;6.196;2023-03-01T00:34:09;54473.41;;;-145.32;100.00
14041;BME280;7095;51.388;6.196;2023-03-01T00:36:37;54479.34;;;-145.32;100.00
14041;BME280;7095;51.388;6.196;2023-03-01T00:39:11;54477.38;;;-145.32;100.00
14041;BME280;7095;51.388;6.196;2023-03-01T00:41:40;54489.31;;;-145.32;100.00
14041;BME280;7095;51.388;6.196;2023-03-01T00:44:09;54463.44;;;-145.32;100.00
14041;BME280;7095;51.388;6.196;2023-03-01T00:46:38;54455.50;;;-145.32;100.00
14041;BME280;7095;51.388;6.196;2023-03-01T00:49:08;54487.31;;;-145.32;100.00
14041;BME280;7095;51.388;6.196;2023-03-01T00:51:36;54481.34;;;-145.32;100.00
14041;BME280;7095;51.388;6.196;2023-03-01T00:54:08;54477.38;;;-145.32;100.00
14041;BME280;7095;51.388;6.196;2023-03-01T00:56:37;54505.22;;;-145.32;100.00
14041;BME280;7095;51.388;6.196;2023-03-01T00:59:06;54469.41;;;-145.32;100.00
14041;BME280;7095;51.388;6.196;2023-03-01T01:01:34;54487.31;;;-145.32;100.00
14041;BME280;7095;51.388;6.196;2023-03-01T01:04:05;54445.56;;;-145.32;100.00
14041;BME280;7095;51.388;6.196;2023-03-01T01:06:36;54485.31;;;-145.32;100.00
14041;BME280;7095;51.388;6.196;2023-03-01T01:09:06;54481.34;;;-145.32;100.00
14041;BME280;7095;51.388;6.196;2023-03-01T01:11:35;54509.19;;;-145.32;100.00
14041;BME280;7095;51.388;6.196;2023-03-01T01:14:04;54485.31;;;-145.32;100.00
14041;BME280;7095;51.388;6.196;2023-03-01T01:16:32;54497.25;;;-145.32;100.00
14041;BME280;7095;51.388;6.196;2023-03-01T01:19:01;54507.19;;;-145.32;100.00
14041;BME280;7095;51.388;6.196;2023-03-01T01:21:30;54475.38;;;-145.32;100.00
14041;BME280;7095;51.388;6.196;2023-03-01T01:24:00;54521.13;;;-145.32;100.00
14041;BME280;7095;51.388;6.196;2023-03-01T01:26:33;54493.28;;;-145.32;100.00
14041;BME280;7095;51.388;6.196;2023-03-01T01:29:03;54483.34;;;-145.32;100.00
14041;BME280;7095;51.388;6.196;2023-03-01T01:31:33;54461.47;;;-145.32;100.00
14041;BME280;7095;51.388;6.196;2023-03-01T01:34:03;54485.31;;;-145.32;100.00
14041;BME280;7095;51.388;6.196;2023-03-01T01:36:33;54477.38;;;-145.32;100.00
14041;BME280;7095;51.388;6.196;2023-03-01T01:39:03;54495.28;;;-145.32;100.00
14041;BME280;7095;51.388;6.196;2023-03-01T01:41:32;54495.28;;;-145.32;100.00
14041;BME280;7095;51.388;6.196;2023-03-01T01:44:18;54507.19;;;-145.32;100.00
14041;BME280;7095;51.388;6.196;2023-03-01T01:46:50;54499.25;;;-145.32;100.00
14041;BME280;7095;51.388;6.196;2023-03-01T01:49:28;54499.25;;;-145.32;100.00
14041;BME280;7095;51.388;6.196;2023-03-01T01:52:05;54509.19;;;-145.32;100.00
14041;BME280;7095;51.388;6.196;2023-03-01T01:54:42;54513.16;;;-145.32;100.00
14041;BME280;7095;51.388;6.196;2023-03-01T01:57:16;54475.38;;;-145.32;100.00
14041;BME280;7095;51.388;6.196;2023-03-01T01:59:50;54509.19;;;-145.32;100.00
14041;BME280;7095;51.388;6.196;2023-03-01T02:02:21;54469.41;;;-145.32;100.00
14041;BME280;7095;51.388;6.196;2023-03-01T02:04:53;54525.09;;;-145.32;100.00
14041;BME280;7095;51.388;6.196;2023-03-01T02:07:26;54517.16;;;-145.32;100.00
14041;BME280;7095;51.388;6.196;2023-03-01T02:09:56;54477.38;;;-145.32;100.00
14041;BME280;7095;51.388;6.196;2023-03-01T02:12:25;54513.16;;;-145.32;100.00
14041;BME280;7095;51.388;6.196;2023-03-01T02:14:54;54527.09;;;-145.32;100.00
14041;BME280;7095;51.388;6.196;2023-03-01T02:17:23;54517.16;;;-145.32;100.00
14041;BME280;7095;51.388;6.196;2023-03-01T02:20:03;54527.09;;;-145.32;100.00
14041;BME280;7095;51.388;6.196;2023-03-01T02:22:38;54533.06;;;-145.32;100.00
14041;BME280;7095;51.388;6.196;2023-03-01T02:27:50;54509.19;;;-145.32;100.00
14041;BME280;7095;51.388;6.196;2023-03-01T02:30:25;54505.22;;;-145.32;100.00
14041;BME280;7095;51.388;6.196;2023-03-01T02:32:55;54497.25;;;-145.32;100.00
14041;BME280;7095;51.388;6.196;2023-03-01T02:35:32;54537.03;;;-145.32;100.00
14041;BME280;7095;51.388;6.196;2023-03-01T02:38:02;54513.16;;;-145.32;100.00
14041;BME280;7095;51.388;6.196;2023-03-01T02:40:33;54483.34;;;-145.32;100.00
14041;BME280;7095;51.388;6.196;2023-03-01T02:43:03;54505.22;;;-145.32;100.00
14041;BME280;7095;51.388;6.196;2023-03-01T02:45:35;54497.25;;;-145.32;100.00
14041;BME280;7095;51.388;6.196;2023-03-01T02:48:04;54537.03;;;-145.32;100.00
14041;BME280;7095;51.388;6.196;2023-03-01T02:50:51;54517.16;;;-145.32;100.00
14041;BME280;7095;51.388;6.196;2023-03-01T02:53:27;54521.13;;;-145.32;100.00
14041;BME280;7095;51.388;6.196;2023-03-01T02:55:57;54495.28;;;-145.32;100.00
14041;BME280;7095;51.388;6.196;2023-03-01T02:58:26;54517.16;;;-145.32;100.00
14041;BME280;7095;51.388;6.196;2023-03-01T03:00:56;54497.25;;;-145.32;100.00
14041;BME280;7095;51.388;6.196;2023-03-01T03:03:28;54576.81;;;-145.32;100.00
14041;BME280;7095;51.388;6.196;2023-03-01T03:05:56;54531.06;;;-145.32;100.00
14041;BME280;7095;51.388;6.196;2023-03-01T03:08:25;54544.97;;;-145.32;100.00
14041;BME280;7095;51.388;6.196;2023-03-01T03:10:54;54491.28;;;-145.32;100.00
14041;BME280;7095;51.388;6.196;2023-03-01T03:13:23;54489.31;;;-145.32;100.00
14041;BME280;7095;51.388;6.196;2023-03-01T03:15:57;54560.91;;;-145.32;100.00
14041;BME280;7095;51.388;6.196;2023-03-01T03:18:25;54543.00;;;-145.32;100.00
14041;BME280;7095;51.388;6.196;2023-03-01T03:20:54;54513.16;;;-145.32;100.00
14041;BME280;7095;51.388;6.196;2023-03-01T03:23:22;54525.09;;;-145.32;100.00
14041;BME280;7095;51.388;6.196;2023-03-01T03:25:51;54541.00;;;-145.32;100.00
14041;BME280;7095;51.388;6.196;2023-03-01T03:28:19;54525.09;;;-145.32;100.00
14041;BME280;7095;51.388;6.196;2023-03-01T03:30:48;54521.13;;;-145.32;100.00
14041;BME280;7095;51.388;6.196;2023-03-01T03:33:18;54531.06;;;-145.32;100.00
14041;BME280;7095;51.388;6.196;2023-03-01T03:35:48;54529.06;;;-145.32;100.00
14041;BME280;7095;51.388;6.196;2023-03-01T03:38:19;54537.03;;;-145.32;100.00
14041;BME280;7095;51.388;6.196;2023-03-01T03:40:50;54537.03;;;-145.32;100.00
14041;BME280;7095;51.388;6.196;2023-03-01T03:43:21;54513.16;;;-145.32;100.00
14041;BME280;7095;51.388;6.196;2023-03-01T03:45:50;54537.03;;;-145.32;100.00
14041;BME280;7095;51.388;6.196;2023-03-01T03:48:21;54483.34;;;-145.32;100.00
14041;BME280;7095;51.388;6.196;2023-03-01T03:50:51;54513.16;;;-145.32;100.00
14041;BME280;7095;51.388;6.196;2023-03-01T03:53:21;54521.13;;;-145.32;100.00
14041;BME280;7095;51.388;6.196;2023-03-01T03:55:50;54509.19;;;-145.32;100.00
14041;BME280;7095;51.388;6.196;2023-03-01T03:58:20;54541.00;;;-145.32;100.00
14041;BME280;7095;51.388;6.196;2023-03-01T04:00:51;54513.16;;;-145.32;100.00
14041;BME280;7095;51.388;6.196;2023-03-01T04:03:22;54543.00;;;-145.32;100.00
14041;BME280;7095;51.388;6.196;2023-03-01T04:05:52;54554.94;;;-145.32;100.00
14041;BME280;7095;51.388;6.196;2023-03-01T04:08:22;54533.06;;;-145.32;100.00
14041;BME280;7095;51.388;6.196;2023-03-01T04:10:52;54552.94;;;-145.32;100.00
14041;BME280;7095;51.388;6.196;2023-03-01T04:13:24;54541.00;;;-145.32;100.00
14041;BME280;7095;51.388;6.196;2023-03-01T04:15:53;54562.88;;;-145.32;100.00
14041;BME280;7095;51.388;6.196;2023-03-01T04:18:24;54548.97;;;-145.32;100.00
14041;BME280;7095;51.388;6.196;2023-03-01T04:20:53;54533.06;;;-145.32;100.00
14041;BME280;7095;51.388;6.196;2023-03-01T04:23:23;54539.03;;;-145.32;100.00
14041;BME280;7095;51.388;6.196;2023-03-01T04:25:52;54521.13;;;-145.32;100.00
14041;BME280;7095;51.388;6.196;2023-03-01T04:28:23;54544.97;;;-145.32;100.00
14041;BME280;7095;51.388;6.196;2023-03-01T04:30:52;54525.09;;;-145.32;100.00
14041;BME280;7095;51.388;6.196;2023-03-01T04:33:23;54546.97;;;-145.32;100.00
14041;BME280;7095;51.388;6.196;2023-03-01T04:35:52;54556.91;;;-145.32;100.00
14041;BME280;7095;51.388;6.196;2023-03-01T04:38:21;54596.69;;;-145.32;100.00
14041;BME280;7095;51.388;6.196;2023-03-01T04:40:50;54541.00;;;-145.32;100.00
14041;BME280;7095;51.388;6.196;2023-03-01T04:43:18;54521.13;;;-145.32;100.00
14041;BME280;7095;51.388;6.196;2023-03-01T04:45:47;54556.91;;;-145.32;100.00
14041;BME280;7095;51.388;6.196;2023-03-01T04:48:16;54505.22;;;-145.32;100.00
14041;BME280;7095;51.388;6.196;2023-03-01T04:50:45;54546.97;;;-145.32;100.00
14041;BME280;7095;51.388;6.196;2023-03-01T04:53:14;54535.03;;;-145.32;100.00
14041;BME280;7095;51.388;6.196;2023-03-01T04:55:42;54548.97;;;-145.32;100.00
14041;BME280;7095;51.388;6.196;2023-03-01T04:58:11;54525.09;;;-145.32;100.00
14041;BME280;7095;51.388;6.196;2023-03-01T05:00:39;54525.09;;;-145.32;100.00
14041;BME280;7095;51.388;6.196;2023-03-01T05:03:10;54562.88;;;-145.32;100.00
14041;BME280;7095;51.388;6.196;2023-03-01T05:05:42;54537.03;;;-145.32;100.00
14041;BME280;7095;51.388;6.196;2023-03-01T05:08:13;54521.13;;;-145.32;100.00
14041;BME280;7095;51.388;6.196;2023-03-01T05:10:45;54533.06;;;-145.32;100.00
14041;BME280;7095;51.388;6.196;2023-03-01T05:13:14;54511.19;;;-145.32;100.00
14041;BME280;7095;51.388;6.196;2023-03-01T05:15:49;54544.97;;;-145.32;100.00
14041;BME280;7095;51.388;6.196;2023-03-01T05:18:22;54539.03;;;-145.32;100.00
14041;BME280;7095;51.388;6.196;2023-03-01T05:20:53;54497.25;;;-145.32;100.00
14041;BME280;7095;51.388;6.196;2023-03-01T05:23:24;54519.13;;;-145.32;100.00
14041;BME280;7095;51.388;6.196;2023-03-01T05:25:53;54535.03;;;-145.32;100.00
14041;BME280;7095;51.388;6.196;2023-03-01T05:28:21;54529.06;;;-145.32;100.00
14041;BME280;7095;51.388;6.196;2023-03-01T05:30:50;54574.81;;;-145.32;100.00
14041;BME280;7095;51.388;6.196;2023-03-01T05:33:18;54568.84;;;-145.32;100.00
14041;BME280;7095;51.388;6.196;2023-03-01T05:35:50;54574.81;;;-145.32;100.00
14041;BME280;7095;51.388;6.196;2023-03-01T05:38:19;54546.97;;;-145.32;100.00
14041;BME280;7095;51.388;6.196;2023-03-01T05:40:49;54558.91;;;-145.32;100.00
14041;BME280;7095;51.388;6.196;2023-03-01T05:43:18;54550.94;;;-145.32;100.00
14041;BME280;7095;51.388;6.196;2023-03-01T05:45:46;54560.91;;;-145.32;100.00
14041;BME280;7095;51.388;6.196;2023-03-01T05:48:15;54529.06;;;-145.32;100.00
14041;BME280;7095;51.388;6.196;2023-03-01T05:50:44;54548.97;;;-145.32;100.00
14041;BME280;7095;51.388;6.196;2023-03-01T05:53:17;54544.97;;;-145.32;100.00
14041;BME280;7095;51.388;6.196;2023-03-01T05:55:46;54548.97;;;-145.32;100.00
14041;BME280;7095;51.388;6.196;2023-03-01T05:58:19;54570.84;;;-145.32;100.00
14041;BME280;7095;51.388;6.196;2023-03-01T06:00:49;54548.97;;;-145.32;100.00
14041;BME280;7095;51.388;6.196;2023-03-01T06:03:21;54533.06;;;-145.32;100.00
14041;BME280;7095;51.388;6.196;2023-03-01T06:05:49;54533.06;;;-145.32;100.00
14041;BME280;7095;51.388;6.196;2023-03-01T06:08:18;54548.97;;;-145.32;100.00
14041;BME280;7095;51.388;6.196;2023-03-01T06:10:47;54564.88;;;-145.32;100.00
14041;BME280;7095;51.388;6.196;2023-03-01T06:13:15;54541.00;;;-145.32;100.00
14041;BME280;7095;51.388;6.196;2023-03-01T06:15:45;54576.81;;;-145.32;100.00
14041;BME280;7095;51.388;6.196;2023-03-01T06:18:14;54564.88;;;-145.32;100.00
14041;BME280;7095;51.388;6.196;2023-03-01T06:20:42;54570.84;;;-145.32;100.00
14041;BME280;7095;51.388;6.196;2023-03-01T06:23:10;54552.94;;;-145.32;100.00
14041;BME280;7095;51.388;6.196;2023-03-01T06:25:39;54537.03;;;-145.32;100.00
14041;BME280;7095;51.388;6.196;2023-03-01T06:28:07;54576.81;;;-145.32;100.00
14041;BME280;7095;51.388;6.196;2023-03-01T06:30:36;54556.91;;;-145.32;100.00
14041;BME280;7095;51.388;6.196;2023-03-01T06:33:06;54566.84;;;-145.32;100.00
14041;BME280;7095;51.388;6.196;2023-03-01T06:35:34;54541.00;;;-145.32;100.00
14041;BME280;7095;51.388;6.196;2023-03-01T06:38:05;54544.97;;;-145.32;100.00
14041;BME280;7095;51.388;6.196;2023-03-01T06:40:34;54556.91;;;-145.32;100.00
14041;BME280;7095;51.388;6.196;2023-03-01T06:43:03;54562.88;;;-145.32;100.00
14041;BME280;7095;51.388;6.196;2023-03-01T06:45:33;54564.88;;;-145.32;100.00
14041;BME280;7095;51.388;6.196;2023-03-01T06:48:02;54568.84;;;-145.32;100.00
14041;BME280;7095;51.388;6.196;2023-03-01T06:50:33;54576.81;;;-145.32;100.00
14041;BME280;7095;51.388;6.196;2023-03-01T06:53:02;54539.03;;;-145.32;100.00
14041;BME280;7095;51.388;6.196;2023-03-01T06:55:31;54592.72;;;-145.32;100.00
14041;BME280;7095;51.388;6.196;2023-03-01T06:58:02;54546.97;;;-145.32;100.00
14041;BME280;7095;51.388;6.196;2023-03-01T07:00:31;54594.69;;;-145.32;100.00
14041;BME280;7095;51.388;6.196;2023-03-01T07:03:00;54598.69;;;-145.32;100.00
14041;BME280;7095;51.388;6.196;2023-03-01T07:05:30;54588.75;;;-145.32;100.00
14041;BME280;7095;51.388;6.196;2023-03-01T07:08:00;54600.66;;;-145.32;100.00
14041;BME280;7095;51.388;6.196;2023-03-01T07:10:28;54596.69;;;-145.32;100.00
14041;BME280;7095;51.388;6.196;2023-03-01T07:12:57;54566.84;;;-145.32;100.00
14041;BME280;7095;51.388;6.196;2023-03-01T07:15:26;54624.53;;;-145.32;100.00
14041;BME280;7095;51.388;6.196;2023-03-01T07:17:56;54604.66;;;-145.32;100.00
14041;BME280;7095;51.388;6.196;2023-03-01T07:20:25;54584.75;;;-145.32;100.00
14041;BME280;7095;51.388;6.196;2023-03-01T07:22:54;54612.59;;;-145.32;100.00
14041;BME280;7095;51.388;6.196;2023-03-01T07:25:24;54620.56;;;-145.32;100.00
14041;BME280;7095;51.388;6.196;2023-03-01T07:27:53;54604.66;;;-145.32;100.00
14041;BME280;7095;51.388;6.196;2023-03-01T07:30:22;54600.66;;;-145.32;100.00
14041;BME280;7095;51.388;6.196;2023-03-01T07:32:53;54636.47;;;-145.32;100.00
14041;BME280;7095;51.388;6.196;2023-03-01T07:35:22;54630.50;;;-145.32;100.00
14041;BME280;7095;51.388;6.196;2023-03-01T07:37:51;54620.56;;;-145.32;100.00
14041;BME280;7095;51.388;6.196;2023-03-01T07:40:20;54568.84;;;-145.32;100.00
14041;BME280;7095;51.388;6.196;2023-03-01T07:42:55;54588.75;;;-145.32;100.00
14041;BME280;7095;51.388;6.196;2023-03-01T07:45:24;54568.84;;;-145.32;100.00
14041;BME280;7095;51.388;6.196;2023-03-01T07:47:55;54570.84;;;-145.32;100.00
14041;BME280;7095;51.388;6.196;2023-03-01T07:50:24;54541.00;;;-145.32;100.00
14041;BME280;7095;51.388;6.196;2023-03-01T07:52:52;54592.72;;;-145.32;100.00
14041;BME280;7095;51.388;6.196;2023-03-01T07:55:21;54594.69;;;-145.32;100.00
14041;BME280;7095;51.388;6.196;2023-03-01T07:57:50;54580.78;;;-145.32;100.00
14041;BME280;7095;51.388;6.196;2023-03-01T08:00:19;54578.78;;;-145.32;100.00
14041;BME280;7095;51.388;6.196;2023-03-01T08:02:48;54572.81;;;-145.32;100.00
14041;BME280;7095;51.388;6.196;2023-03-01T08:05:16;54556.91;;;-145.32;100.00
14041;BME280;7095;51.388;6.196;2023-03-01T08:07:45;54544.97;;;-145.32;100.00
14041;BME280;7095;51.388;6.196;2023-03-01T08:10:13;54537.03;;;-145.32;100.00
14041;BME280;7095;51.388;6.196;2023-03-01T08:12:42;54519.13;;;-145.32;100.00
14041;BME280;7095;51.388;6.196;2023-03-01T08:15:12;54521.13;;;-145.32;100.00
14041;BME280;7095;51.388;6.196;2023-03-01T08:17:40;54499.25;;;-145.32;100.00
14041;BME280;7095;51.388;6.196;2023-03-01T08:20:10;54517.16;;;-145.32;100.00
14041;BME280;7095;51.388;6.196;2023-03-01T08:22:39;54511.19;;;-145.32;100.00
14041;BME280;7095;51.388;6.196;2023-03-01T08:25:11;54463.44;;;-145.32;100.00
14041;BME280;7095;51.388;6.196;2023-03-01T08:27:39;54495.28;;;-145.32;100.00
14041;BME280;7095;51.388;6.196;2023-03-01T08:30:09;54447.53;;;-145.32;100.00
14041;BME280;7095;51.388;6.196;2023-03-01T08:32:39;54449.53;;;-145.32;100.00
14041;BME280;7095;51.388;6.196;2023-03-01T08:35:08;54457.47;;;-145.32;100.00
14041;BME280;7095;51.388;6.196;2023-03-01T08:37:36;54441.56;;;-145.32;100.00
14041;BME280;7095;51.388;6.196;2023-03-01T08:40:06;54425.66;;;-145.32;100.00
14041;BME280;7095;51.388;6.196;2023-03-01T08:42:36;54423.69;;;-145.32;100.00
14041;BME280;7095;51.388;6.196;2023-03-01T08:45:06;54461.47;;;-145.32;100.00
14041;BME280;7095;51.388;6.196;2023-03-01T08:47:35;54429.66;;;-145.32;100.00
14041;BME280;7095;51.388;6.196;2023-03-01T08:50:06;54431.63;;;-145.32;100.00
14041;BME280;7095;51.388;6.196;2023-03-01T08:52:35;54431.63;;;-145.32;100.00
14041;BME280;7095;51.388;6.196;2023-03-01T08:55:05;54413.72;;;-145.32;100.00
14041;BME280;7095;51.388;6.196;2023-03-01T08:57:33;54399.81;;;-145.32;100.00
14041;BME280;7095;51.388;6.196;2023-03-01T09:00:02;54395.84;;;-145.32;100.00
14041;BME280;7095;51.388;6.196;2023-03-01T09:02:35;54368.00;;;-145.32;100.00
14041;BME280;7095;51.388;6.196;2023-03-01T09:05:06;54373.97;;;-145.32;100.00
14041;BME280;7095;51.388;6.196;2023-03-01T09:07:34;54371.97;;;-145.32;100.00
14041;BME280;7095;51.388;6.196;2023-03-01T09:10:04;54318.28;;;-145.32;100.00
14041;BME280;7095;51.388;6.196;2023-03-01T09:12:32;54330.22;;;-145.32;100.00
14041;BME280;7095;51.388;6.196;2023-03-01T09:15:01;54314.31;;;-145.32;100.00
14041;BME280;7095;51.388;6.196;2023-03-01T09:17:29;54302.38;;;-145.32;100.00
14041;BME280;7095;51.388;6.196;2023-03-01T09:19:58;54350.09;;;-145.32;100.00
14041;BME280;7095;51.388;6.196;2023-03-01T09:22:28;54306.34;;;-145.32;100.00
14041;BME280;7095;51.388;6.196;2023-03-01T09:24:56;54314.31;;;-145.32;100.00
14041;BME280;7095;51.388;6.196;2023-03-01T09:27:26;54274.53;;;-145.32;100.00
14041;BME280;7095;51.388;6.196;2023-03-01T09:29:54;54282.50;;;-145.32;100.00
14041;BME280;7095;51.388;6.196;2023-03-01T09:32:24;54254.66;;;-145.32;100.00
14041;BME280;7095;51.388;6.196;2023-03-01T09:34:53;54282.50;;;-145.32;100.00
14041;BME280;7095;51.388;6.196;2023-03-01T09:37:34;54266.59;;;-145.32;100.00
14041;BME280;7095;51.388;6.196;2023-03-01T09:40:06;54222.84;;;-145.32;100.00
14041;BME280;7095;51.388;6.196;2023-03-01T09:42:51;54254.66;;;-145.32;100.00
14041;BME280;7095;51.388;6.196;2023-03-01T09:45:26;54242.72;;;-145.32;100.00
14041;BME280;7095;51.388;6.196;2023-03-01T09:47:56;54187.03;;;-145.32;100.00
14041;BME280;7095;51.388;6.196;2023-03-01T09:50:26;54171.13;;;-145.32;100.00
14041;BME280;7095;51.388;6.196;2023-03-01T09:53:02;54181.06;;;-145.32;100.00
14041;BME280;7095;51.388;6.196;2023-03-01T09:55:36;54191.03;;;-145.32;100.00
14041;BME280;7095;51.388;6.196;2023-03-01T09:58:25;54163.19;;;-145.32;100.00
14041;BME280;7095;51.388;6.196;2023-03-01T10:00:59;54139.31;;;-145.32;100.00
14041;BME280;7095;51.388;6.196;2023-03-01T10:03:33;54195.00;;;-145.32;100.00
14041;BME280;7095;51.388;6.196;2023-03-01T10:06:08;54169.16;;;-145.32;100.00
14041;BME280;7095;51.388;6.196;2023-03-01T10:09:02;54153.25;;;-145.32;100.00
14041;BME280;7095;51.388;6.196;2023-03-01T10:11:35;54091.59;;;-145.32;100.00
14041;BME280;7095;51.388;6.196;2023-03-01T10:14:15;54125.41;;;-145.32;100.00
14041;BME280;7095;51.388;6.196;2023-03-01T10:16:52;54119.44;;;-145.32;100.00
14041;BME280;7095;51.388;6.196;2023-03-01T10:19:31;54139.31;;;-145.32;100.00
14041;BME280;7095;51.388;6.196;2023-03-01T10:22:05;54113.47;;;-145.32;100.00
14041;BME280;7095;51.388;6.196;2023-03-01T10:24:40;54123.41;;;-145.32;100.00
14041;BME280;7095;51.388;6.196;2023-03-01T10:27:14;54091.59;;;-145.32;100.00
14041;BME280;7095;51.388;6.196;2023-03-01T10:29:49;54097.56;;;-145.32;100.00
14041;BME280;7095;51.388;6.196;2023-03-01T10:32:20;54099.56;;;-145.32;100.00
14041;BME280;7095;51.388;6.196;2023-03-01T10:34:51;54083.66;;;-145.32;100.00
14041;BME280;7095;51.388;6.196;2023-03-01T10:37:20;54083.66;;;-145.32;100.00
14041;BME280;7095;51.388;6.196;2023-03-01T10:39:57;54035.91;;;-145.32;100.00
14041;BME280;7095;51.388;6.196;2023-03-01T10:42:28;54057.78;;;-145.32;100.00
14041;BME280;7095;51.388;6.196;2023-03-01T10:44:57;54053.81;;;-145.32;100.00
14041;BME280;7095;51.388;6.196;2023-03-01T10:47:27;54043.88;;;-145.32;100.00
14041;BME280;7095;51.388;6.196;2023-03-01T10:49:58;54049.84;;;-145.32;100.00
14041;BME280;7095;51.388;6.196;2023-03-01T10:52:33;54031.94;;;-145.32;100.00
14041;BME280;7095;51.388;6.196;2023-03-01T10:55:23;54043.88;;;-145.32;100.00
14041;BME280;7095;51.388;6.196;2023-03-01T10:58:07;54051.81;;;-145.32;100.00
14041;BME280;7095;51.388;6.196;2023-03-01T11:00:47;54039.91;;;-145.32;100.00
14041;BME280;7095;51.388;6.196;2023-03-01T11:03:19;54051.81;;;-145.32;100.00
14041;BME280;7095;51.388;6.196;2023-03-01T11:06:04;54029.97;;;-145.32;100.00
14041;BME280;7095;51.388;6.196;2023-03-01T11:08:39;54059.78;;;-145.32;100.00
14041;BME280;7095;51.388;6.196;2023-03-01T11:11:21;54020.00;;;-145.32;100.00
14041;BME280;7095;51.388;6.196;2023-03-01T11:13:52;54010.06;;;-145.32;100.00
14041;BME280;7095;51.388;6.196;2023-03-01T11:16:31;54014.06;;;-145.32;100.00
14041;BME280;7095;51.388;6.196;2023-03-01T11:19:13;53968.31;;;-145.32;100.00
14041;BME280;7095;51.388;6.196;2023-03-01T11:21:55;53996.16;;;-145.32;100.00
14041;BME280;7095;51.388;6.196;2023-03-01T11:24:31;53976.28;;;-145.32;98.09
14041;BME280;7095;51.388;6.196;2023-03-01T11:27:06;53984.22;;;-145.32;93.20
14041;BME280;7095;51.388;6.196;2023-03-01T11:29:38;53982.25;;;-145.32;98.78
14041;BME280;7095;51.388;6.196;2023-03-01T11:32:15;53972.28;;;-145.32;98.37
14041;BME280;7095;51.388;6.196;2023-03-01T11:34:47;53958.38;;;-145.32;93.43
14041;BME280;7095;51.388;6.196;2023-03-01T11:37:24;53984.22;;;-145.32;94.62
14041;BME280;7095;51.388;6.196;2023-03-01T11:40:07;53948.44;;;-145.32;86.54
14041;BME280;7095;51.388;6.196;2023-03-01T11:42:48;53944.47;;;-145.32;92.51
14041;BME280;7095;51.388;6.196;2023-03-01T11:45:21;53952.41;;;-145.32;91.32
14041;BME280;7095;51.388;6.196;2023-03-01T11:48:11;53934.50;;;-145.32;87.36
14041;BME280;7095;51.388;6.196;2023-03-01T11:50:44;53956.38;;;-145.32;90.50
14041;BME280;7095;51.388;6.196;2023-03-01T11:53:30;53976.28;;;-145.32;84.81
14041;BME280;7095;51.388;6.196;2023-03-01T11:56:08;53914.63;;;-145.32;89.25
14041;BME280;7095;51.388;6.196;2023-03-01T11:58:58;53966.34;;;-145.32;81.74
14041;BME280;7095;51.388;6.196;2023-03-01T12:01:42;53932.53;;;-145.32;84.19
14041;BME280;7095;51.388;6.196;2023-03-01T12:04:34;53930.53;;;-145.32;77.92
14041;BME280;7095;51.388;6.196;2023-03-01T12:07:10;53888.78;;;-145.32;87.73
14041;BME280;7095;51.388;6.196;2023-03-01T12:09:55;53914.63;;;-145.32;86.74
14041;BME280;7095;51.388;6.196;2023-03-01T12:12:32;53912.66;;;-145.32;83.08
14041;BME280;7095;51.388;6.196;2023-03-01T12:15:29;53896.75;;;-145.32;78.16
14041;BME280;7095;51.388;6.196;2023-03-01T12:18:23;53914.63;;;-145.32;74.77
14041;BME280;7095;51.388;6.196;2023-03-01T12:21:02;53896.75;;;-145.32;74.26
14041;BME280;7095;51.388;6.196;2023-03-01T12:26:34;53902.69;;;-145.32;73.53
14041;BME280;7095;51.388;6.196;2023-03-01T12:29:25;53918.59;;;-145.32;67.35
14041;BME280;7095;51.388;6.196;2023-03-01T12:32:17;53868.91;;;-145.32;64.54
14041;BME280;7095;51.388;6.196;2023-03-01T12:35:03;53876.84;;;-145.32;64.74
14041;BME280;7095;51.388;6.196;2023-03-01T12:37:42;53888.78;;;-145.32;66.90
14041;BME280;7095;51.388;6.196;2023-03-01T12:40:27;53878.84;;;-145.32;66.21
14041;BME280;7095;51.388;6.196;2023-03-01T12:43:10;53862.94;;;-145.32;66.09
14041;BME280;7095;51.388;6.196;2023-03-01T12:45:54;53876.84;;;-145.32;62.35
14041;BME280;7095;51.388;6.196;2023-03-01T12:48:36;53874.88;;;-145.32;62.22
14041;BME280;7095;51.388;6.196;2023-03-01T12:51:10;53845.03;;;-145.32;63.42
14041;BME280;7095;51.388;6.196;2023-03-01T12:53:41;53862.94;;;-145.32;60.02
14041;BME280;7095;51.388;6.196;2023-03-01T12:56:15;53854.97;;;-145.32;59.30
14041;BME280;7095;51.388;6.196;2023-03-01T12:58:52;53851.00;;;-145.32;56.68
14041;BME280;7095;51.388;6.196;2023-03-01T13:01:34;53787.38;;;-145.32;55.88
14041;BME280;7095;51.388;6.196;2023-03-01T13:04:16;53817.22;;;-145.32;54.49
14041;BME280;7095;51.388;6.196;2023-03-01T13:06:55;53817.22;;;-145.32;54.37
14041;BME280;7095;51.388;6.196;2023-03-01T13:09:31;53777.44;;;-145.32;52.09
14041;BME280;7095;51.388;6.196;2023-03-01T13:12:03;53765.50;;;-145.32;52.31